Time;durP1;ratioP1;P1;durP2;ratioP2;P2;SDS_P1;SDS_P2;PMS_P1;PMS_P2;Temp;Humidity;BMP_temperature;BMP_pressure;BME280_temperature;BME280_humidity;BME280_pressure;Samples;Min_cycle;Max_cycle;Signal;HPM_P1;HPM_P2
2023/12/26 00:01:13;;;;;;;1.67;0.80;;;;;;;9.65;100.00;100506.78;4896326;29;20051;-93
2023/12/26 00:03:39;;;;;;;1.15;0.60;;;;;;;9.62;100.00;100514.66;4897534;29;20052;-90
2023/12/26 00:06:06;;;;;;;1.00;0.68;;;;;;;9.60;100.00;100516.44;4913345;29;20032;-90
2023/12/26 00:08:31;;;;;;;2.70;0.73;;;;;;;9.59;100.00;100505.22;4914667;29;20476;-90
2023/12/26 00:10:57;;;;;;;0.70;0.65;;;;;;;9.55;100.00;100499.25;4897550;29;20028;-92
2023/12/26 00:13:22;;;;;;;1.45;0.77;;;;;;;9.55;100.00;100503.59;4897792;29;20024;-90
2023/12/26 00:15:48;;;;;;;0.93;0.70;;;;;;;9.56;100.00;100508.72;4894346;29;20043;-92
2023/12/26 00:18:13;;;;;;;1.10;0.70;;;;;;;9.60;100.00;100495.66;4895974;29;20543;-92
2023/12/26 00:20:39;;;;;;;1.67;0.75;;;;;;;9.56;100.00;100503.53;4917124;29;20056;-93
2023/12/26 00:23:06;;;;;;;1.58;0.80;;;;;;;9.56;100.00;100503.53;4916334;29;20031;-93
2023/12/26 00:25:31;;;;;;;1.05;0.70;;;;;;;9.55;100.00;100501.84;4914305;29;20543;-92
2023/12/26 00:27:57;;;;;;;1.52;0.70;;;;;;;9.54;100.00;100501.88;4912414;29;20192;-92
2023/12/26 00:30:22;;;;;;;1.75;0.70;;;;;;;9.51;100.00;100492.44;4914791;29;20027;-93
2023/12/26 00:32:47;;;;;;;1.30;0.70;;;;;;;9.50;100.00;100501.13;4912730;29;20024;-92
2023/12/26 00:35:13;;;;;;;2.00;1.00;;;;;;;9.51;100.00;100497.63;4916050;29;20035;-90
2023/12/26 00:37:39;;;;;;;4.15;1.00;;;;;;;9.48;100.00;100500.31;4912759;29;20048;-90
2023/12/26 00:40:06;;;;;;;2.60;0.70;;;;;;;9.45;100.00;100492.59;4915079;29;20019;-94
2023/12/26 00:42:32;;;;;;;1.80;0.88;;;;;;;9.45;100.00;100502.13;4913058;29;20455;-88
2023/12/26 00:44:58;;;;;;;1.13;0.60;;;;;;;9.44;100.00;100505.63;4910240;29;20543;-92
2023/12/26 00:47:26;;;;;;;2.25;0.77;;;;;;;9.43;100.00;100515.13;4914561;29;20102;-95
2023/12/26 00:49:55;;;;;;;2.63;0.70;;;;;;;9.44;100.00;100510.81;4911534;29;20024;-93
2023/12/26 00:52:25;;;;;;;1.45;0.70;;;;;;;9.40;100.00;100515.22;4912407;29;20019;-94
2023/12/26 00:54:54;;;;;;;2.92;0.70;;;;;;;9.43;100.00;100509.13;4912918;29;20031;-93
2023/12/26 00:57:19;;;;;;;2.03;0.60;;;;;;;9.38;100.00;100507.47;4912609;29;20035;-92
2023/12/26 00:59:47;;;;;;;2.80;0.60;;;;;;;9.38;100.00;100517.03;4929133;29;20595;-93
2023/12/26 01:02:14;;;;;;;2.40;0.80;;;;;;;9.36;100.00;100518.81;4913455;29;20024;-92
2023/12/26 01:04:40;;;;;;;3.22;0.68;;;;;;;9.34;100.00;100531.81;4911222;29;20115;-93
2023/12/26 01:07:06;;;;;;;2.67;0.70;;;;;;;9.33;100.00;100531.88;4927914;29;20154;-93
2023/12/26 01:09:31;;;;;;;2.15;0.60;;;;;;;9.31;100.00;100526.69;4912355;29;20055;-90
2023/12/26 01:11:57;;;;;;;1.33;0.63;;;;;;;9.33;100.00;100529.28;4912921;29;20023;-92
2023/12/26 01:14:22;;;;;;;2.47;0.60;;;;;;;9.33;100.00;100537.06;4930562;29;20110;-92
2023/12/26 01:16:48;;;;;;;0.60;0.52;;;;;;;9.32;100.00;100530.16;4913015;29;20028;-92
2023/12/26 01:19:13;;;;;;;2.20;0.52;;;;;;;9.33;100.00;100530.09;4913068;29;20024;-92
2023/12/26 01:21:39;;;;;;;0.82;0.50;;;;;;;9.30;100.00;100530.22;4913099;29;20178;-94
2023/12/26 01:24:05;;;;;;;1.50;0.60;;;;;;;9.33;100.00;100529.28;4913745;29;20023;-93
2023/12/26 01:26:30;;;;;;;0.65;0.50;;;;;;;9.33;100.00;100537.06;4912715;29;20023;-92
2023/12/26 01:29:01;;;;;;;1.40;0.70;;;;;;;9.35;100.00;100535.28;4909120;29;20592;-92
2023/12/26 01:31:29;;;;;;;1.90;0.70;;;;;;;9.34;100.00;100543.97;4908239;29;20670;-92
2023/12/26 01:33:54;;;;;;;0.77;0.60;;;;;;;9.29;100.00;100545.81;4911085;29;20099;-91
2023/12/26 01:36:20;;;;;;;1.23;0.50;;;;;;;9.31;100.00;100533.66;4927130;29;20040;-91
2023/12/26 01:38:45;;;;;;;2.80;0.77;;;;;;;9.27;100.00;100549.28;4906468;29;20042;-93
2023/12/26 01:41:11;;;;;;;2.28;0.70;;;;;;;9.30;100.00;100547.50;4907443;29;20028;-91
2023/12/26 01:43:36;;;;;;;1.10;0.80;;;;;;;9.31;100.00;100551.81;4923016;29;20031;-92
2023/12/26 01:46:03;;;;;;;1.20;0.77;;;;;;;9.27;100.00;100551.88;4910273;29;20024;-94
2023/12/26 01:48:29;;;;;;;0.70;0.70;;;;;;;9.26;100.00;100552.78;4909057;29;20039;-92
2023/12/26 01:50:56;;;;;;;0.70;0.68;;;;;;;9.29;100.00;100556.19;4908635;29;20019;-93
2023/12/26 01:53:21;;;;;;;0.95;0.77;;;;;;;9.30;100.00;100563.09;4910209;29;20097;-92
2023/12/26 01:55:47;;;;;;;0.95;0.80;;;;;;;9.30;100.00;100563.09;4909148;29;20149;-94
2023/12/26 01:58:12;;;;;;;1.60;0.90;;;;;;;9.30;100.00;100571.75;4913329;29;20443;-92
2023/12/26 02:00:39;;;;;;;1.70;1.02;;;;;;;9.32;100.00;100574.28;4910653;29;20052;-92
2023/12/26 02:03:05;;;;;;;2.60;1.10;;;;;;;9.35;100.00;100582.00;4912914;29;20019;-93
2023/12/26 02:05:30;;;;;;;1.90;1.20;;;;;;;9.33;100.00;100576.00;4912594;29;20034;-90
2023/12/26 02:07:56;;;;;;;1.30;1.00;;;;;;;9.30;100.00;100584.72;4912514;29;20118;-91
2023/12/26 02:10:21;;;;;;;1.08;0.98;;;;;;;9.27;100.00;100572.66;4912029;29;20027;-92
2023/12/26 02:12:47;;;;;;;1.40;0.88;;;;;;;9.30;100.00;100576.06;4927712;29;20091;-90
2023/12/26 02:15:14;;;;;;;1.50;0.80;;;;;;;9.30;100.00;100576.06;4912952;29;20035;-90
2023/12/26 02:17:39;;;;;;;1.40;0.90;;;;;;;9.27;100.00;100575.25;4930888;29;20742;-92
2023/12/26 02:20:05;;;;;;;1.10;0.90;;;;;;;9.24;100.00;100577.91;4929011;29;20024;-90
2023/12/26 02:22:31;;;;;;;1.95;1.00;;;;;;;9.25;100.00;100579.63;4929885;29;20059;-89
2023/12/26 02:24:57;;;;;;;1.08;0.90;;;;;;;9.26;100.00;100581.31;4927906;29;20547;-92
2023/12/26 02:27:25;;;;;;;1.05;0.90;;;;;;;9.29;100.00;100584.75;4912764;29;20199;-90
2023/12/26 02:29:53;;;;;;;1.50;1.10;;;;;;;9.28;100.00;100589.09;4913173;29;20064;-91
2023/12/26 02:32:21;;;;;;;1.40;1.20;;;;;;;9.27;100.00;100588.22;4926758;29;20039;-92
2023/12/26 02:34:48;;;;;;;2.25;1.30;;;;;;;9.29;100.00;100589.94;4908851;29;20019;-91
2023/12/26 02:37:14;;;;;;;1.85;1.60;;;;;;;9.30;100.00;100596.84;4910684;29;20035;-91
2023/12/26 02:39:40;;;;;;;2.80;1.40;;;;;;;9.30;100.00;100587.31;4912861;29;20410;-91
2023/12/26 02:42:05;;;;;;;1.52;1.30;;;;;;;9.29;100.00;100589.94;4927988;29;20480;-90
2023/12/26 02:44:31;;;;;;;2.17;1.48;;;;;;;9.29;100.00;100600.31;4929505;29;20026;-90
2023/12/26 02:46:56;;;;;;;1.33;1.10;;;;;;;9.29;100.00;100588.22;4912618;29;20056;-91
2023/12/26 02:49:22;;;;;;;1.65;1.05;;;;;;;9.31;100.00;100588.16;4912962;29;20043;-90
2023/12/26 02:51:47;;;;;;;1.35;1.25;;;;;;;9.31;100.00;100588.16;4915975;29;20102;-91
2023/12/26 02:54:12;;;;;;;1.40;1.30;;;;;;;9.29;100.00;100596.00;4930323;29;20055;-92
2023/12/26 02:56:38;;;;;;;1.88;1.40;;;;;;;9.29;100.00;100587.34;4915161;29;20160;-91
2023/12/26 02:59:03;;;;;;;2.60;1.25;;;;;;;9.29;100.00;100584.75;4916228;29;20024;-90
2023/12/26 03:01:28;;;;;;;5.72;2.03;;;;;;;9.29;100.00;100600.31;4933516;29;20467;-92
2023/12/26 03:03:54;;;;;;;1.70;1.35;;;;;;;9.27;100.00;100598.59;4915521;29;20024;-90
2023/12/26 03:06:19;;;;;;;2.97;1.40;;;;;;;9.29;100.00;100600.31;4916758;29;20035;-91
2023/12/26 03:08:44;;;;;;;2.15;1.40;;;;;;;9.29;100.00;100615.91;4934347;29;20031;-91
2023/12/26 03:11:10;;;;;;;1.42;1.20;;;;;;;9.26;100.00;100622.84;4933606;29;20054;-92
2023/12/26 03:13:35;;;;;;;1.50;1.30;;;;;;;9.24;100.00;100641.97;4928718;29;20031;-90
2023/12/26 03:16:01;;;;;;;1.40;1.30;;;;;;;9.21;100.00;100632.53;4933877;29;20036;-90
2023/12/26 03:18:26;;;;;;;2.65;1.17;;;;;;;9.23;100.00;100642.84;4917383;29;20082;-90
2023/12/26 03:20:51;;;;;;;1.70;1.25;;;;;;;9.21;100.00;100629.94;4917113;29;20046;-90
2023/12/26 03:23:17;;;;;;;1.83;1.60;;;;;;;9.26;100.00;100642.78;4913362;29;20110;-92
2023/12/26 03:25:43;;;;;;;2.15;1.88;;;;;;;9.27;100.00;100644.50;4933710;29;20020;-90
2023/12/26 03:28:08;;;;;;;2.55;2.15;;;;;;;9.24;100.00;100648.00;4933208;29;20523;-93
2023/12/26 03:30:34;;;;;;;2.80;1.88;;;;;;;9.24;100.00;100652.34;4935583;29;20116;-90
2023/12/26 03:32:59;;;;;;;2.25;1.90;;;;;;;9.23;100.00;100632.47;4938904;29;20024;-92
2023/12/26 03:35:25;;;;;;;2.50;1.65;;;;;;;9.19;100.00;100649.88;4916546;29;20036;-90
2023/12/26 03:37:51;;;;;;;2.67;1.50;;;;;;;9.18;100.00;100655.94;4916830;29;20472;-92
2023/12/26 03:40:16;;;;;;;4.65;1.40;;;;;;;9.16;100.00;100642.16;4917988;29;20039;-93
2023/12/26 03:42:42;;;;;;;2.00;1.17;;;;;;;9.17;100.00;100643.84;4916536;29;20043;-90
2023/12/26 03:45:08;;;;;;;4.20;1.20;;;;;;;9.14;100.00;100654.31;4913701;29;20404;-92
2023/12/26 03:47:33;;;;;;;1.40;1.00;;;;;;;9.12;100.00;100643.09;4915216;29;20066;-92
2023/12/26 03:50:00;;;;;;;5.15;1.30;;;;;;;9.10;100.00;100648.34;4916513;29;20066;-92
2023/12/26 03:52:25;;;;;;;5.55;1.10;;;;;;;9.07;100.00;100652.72;4919371;29;20103;-92
2023/12/26 03:54:52;;;;;;;3.15;1.00;;;;;;;9.07;100.00;100652.72;4932702;29;20110;-90
2023/12/26 03:57:17;;;;;;;4.03;0.90;;;;;;;9.02;100.00;100650.25;4917020;29;20032;-92
2023/12/26 03:59:43;;;;;;;2.45;0.88;;;;;;;9.01;100.00;100658.91;4915114;29;20028;-92
2023/12/26 04:02:08;;;;;;;2.30;0.60;;;;;;;9.03;100.00;100662.31;4910415;29;20501;-92
2023/12/26 04:04:34;;;;;;;2.65;0.90;;;;;;;9.00;100.00;100661.56;4933101;29;20080;-91
2023/12/26 04:06:59;;;;;;;5.07;0.60;;;;;;;8.96;100.00;100661.63;4912266;29;20491;-91
2023/12/26 04:09:24;;;;;;;2.70;0.60;;;;;;;8.98;100.00;100668.50;4915498;29;20062;-92
2023/12/26 04:11:50;;;;;;;4.25;0.90;;;;;;;8.95;100.00;100674.63;4932366;29;20052;-92
2023/12/26 04:14:15;;;;;;;4.80;0.70;;;;;;;8.95;100.00;100683.25;4916010;29;20043;-92
2023/12/26 04:16:41;;;;;;;2.83;0.57;;;;;;;8.95;100.00;100690.19;4929007;29;20043;-92
2023/12/26 04:19:06;;;;;;;3.33;0.90;;;;;;;8.95;100.00;100688.44;4915740;29;20387;-92
2023/12/26 04:21:31;;;;;;;2.17;0.70;;;;;;;8.99;100.00;100690.97;4915703;29;20047;-91
2023/12/26 04:23:57;;;;;;;7.40;0.88;;;;;;;8.97;100.00;100688.41;4932525;29;20031;-92
2023/12/26 04:26:23;;;;;;;3.30;0.82;;;;;;;8.94;100.00;100684.13;4914361;29;20055;-92
2023/12/26 04:28:49;;;;;;;3.63;0.50;;;;;;;8.96;100.00;100700.53;4915527;29;20023;-93
2023/12/26 04:31:14;;;;;;;2.75;0.60;;;;;;;8.92;100.00;100704.06;4914838;29;20026;-92
2023/12/26 04:33:40;;;;;;;2.72;0.60;;;;;;;8.93;100.00;100713.56;4915156;29;20031;-91
2023/12/26 04:36:08;;;;;;;3.67;0.60;;;;;;;8.95;100.00;100718.75;4914550;29;20024;-92
2023/12/26 04:38:33;;;;;;;6.38;0.60;;;;;;;8.93;100.00;100718.75;4913034;29;20032;-92
2023/12/26 04:40:59;;;;;;;4.90;0.85;;;;;;;8.94;100.00;100715.28;4913470;29;20034;-92
2023/12/26 04:43:24;;;;;;;2.35;0.68;;;;;;;8.94;100.00;100725.66;4929214;29;20483;-92
2023/12/26 04:45:49;;;;;;;5.28;0.70;;;;;;;8.96;100.00;100725.63;4912946;29;20035;-91
2023/12/26 04:48:15;;;;;;;4.00;0.70;;;;;;;8.96;100.00;100726.47;4933121;29;20059;-90
2023/12/26 04:50:40;;;;;;;3.58;0.70;;;;;;;8.96;100.00;100734.25;4914296;29;20102;-91
2023/12/26 04:53:06;;;;;;;4.88;0.80;;;;;;;8.97;100.00;100740.28;4912727;29;20024;-92
2023/12/26 04:55:32;;;;;;;3.42;0.68;;;;;;;8.99;100.00;100741.13;4913513;29;20594;-91
2023/12/26 04:57:57;;;;;;;4.18;0.70;;;;;;;9.01;100.00;100736.75;4911439;29;20135;-91
2023/12/26 05:00:23;;;;;;;2.35;0.50;;;;;;;9.01;100.00;100746.28;4915211;29;20115;-92
2023/12/26 05:02:49;;;;;;;5.25;0.80;;;;;;;9.01;100.00;100767.06;4914263;29;20111;-91
2023/12/26 05:05:15;;;;;;;5.45;0.70;;;;;;;8.96;100.00;100775.78;4930634;29;20098;-91
2023/12/26 05:07:40;;;;;;;4.80;1.00;;;;;;;8.95;100.00;100784.44;4928680;29;21604;-91
2023/12/26 05:10:06;;;;;;;5.30;0.70;;;;;;;8.91;100.00;100787.13;4913282;29;20032;-91
2023/12/26 05:12:32;;;;;;;3.70;0.70;;;;;;;8.91;100.00;100803.53;4931938;29;20082;-92
2023/12/26 05:14:57;;;;;;;5.35;0.77;;;;;;;8.88;100.00;100800.16;4913321;29;20023;-91
2023/12/26 05:17:23;;;;;;;6.53;0.80;;;;;;;8.82;100.00;100808.94;4915126;29;20027;-92
2023/12/26 05:19:48;;;;;;;4.75;0.80;;;;;;;8.77;100.00;100801.25;4932567;29;20035;-90
2023/12/26 05:22:14;;;;;;;3.47;0.68;;;;;;;8.73;100.00;100816.88;4914077;29;20048;-90
2023/12/26 05:24:39;;;;;;;6.43;1.00;;;;;;;8.63;100.00;100804.06;4915003;29;20031;-92
2023/12/26 05:27:05;;;;;;;5.75;0.77;;;;;;;8.60;100.00;100809.31;4913633;29;20055;-90
2023/12/26 05:29:31;;;;;;;4.13;0.65;;;;;;;8.57;100.00;100811.97;4912539;29;20023;-90
2023/12/26 05:31:56;;;;;;;4.15;0.70;;;;;;;8.54;100.00;100813.75;4912749;29;20019;-91
2023/12/26 05:34:22;;;;;;;3.03;0.63;;;;;;;8.50;100.00;100838.91;4911335;29;20527;-91
2023/12/26 05:36:48;;;;;;;4.97;0.55;;;;;;;8.51;100.00;100843.19;4912484;29;20127;-90
2023/12/26 05:39:14;;;;;;;4.18;0.80;;;;;;;8.48;100.00;100838.06;4911552;29;20502;-90
2023/12/26 05:41:42;;;;;;;5.05;0.73;;;;;;;8.45;100.00;100840.66;4914064;29;20031;-92
2023/12/26 05:44:07;;;;;;;5.22;0.60;;;;;;;8.42;100.00;100840.72;4930361;29;20423;-91
2023/12/26 05:46:33;;;;;;;4.15;0.73;;;;;;;8.44;100.00;100850.19;4929306;29;20042;-90
2023/12/26 05:48:59;;;;;;;4.40;0.80;;;;;;;8.45;100.00;100857.09;4930306;29;20035;-92
2023/12/26 05:51:25;;;;;;;4.95;0.70;;;;;;;8.46;100.00;100856.19;4913416;29;20875;-91
2023/12/26 05:53:51;;;;;;;3.03;0.65;;;;;;;8.48;100.00;100864.81;4913237;29;20122;-90
2023/12/26 05:56:18;;;;;;;9.02;0.80;;;;;;;8.48;100.00;100869.19;4929433;29;20485;-91
2023/12/26 05:58:43;;;;;;;5.25;0.68;;;;;;;8.48;100.00;100867.41;4911196;29;20049;-91
2023/12/26 06:01:10;;;;;;;5.47;0.90;;;;;;;8.47;100.00;100872.63;4909158;29;20480;-91
2023/12/26 06:03:35;;;;;;;4.28;0.63;;;;;;;8.44;100.00;100881.31;4912533;29;20146;-91
2023/12/26 06:06:01;;;;;;;4.75;0.68;;;;;;;8.41;100.00;100883.06;4914536;29;20082;-92
2023/12/26 06:08:26;;;;;;;6.57;0.90;;;;;;;8.37;100.00;100887.47;4930163;29;20443;-91
2023/12/26 06:10:52;;;;;;;4.03;0.50;;;;;;;8.35;100.00;100890.09;4929052;29;20020;-91
2023/12/26 06:13:17;;;;;;;4.90;0.65;;;;;;;8.29;100.00;100887.59;4913879;29;20030;-91
2023/12/26 06:15:43;;;;;;;5.70;0.93;;;;;;;8.26;100.00;100891.97;4913436;29;20024;-91
2023/12/26 06:18:08;;;;;;;4.65;0.90;;;;;;;8.24;100.00;100909.28;4931049;29;20035;-92
2023/12/26 06:20:34;;;;;;;3.08;0.60;;;;;;;8.21;100.00;100915.34;4910794;29;20050;-91
2023/12/26 06:22:59;;;;;;;6.15;0.70;;;;;;;8.15;100.00;100925.81;4910366;29;20085;-91
2023/12/26 06:25:24;;;;;;;6.18;0.90;;;;;;;8.10;100.00;100932.78;4929822;29;20158;-91
2023/12/26 06:27:50;;;;;;;4.60;0.75;;;;;;;8.09;100.00;100947.50;4913702;29;20042;-91
2023/12/26 06:30:17;;;;;;;5.07;0.60;;;;;;;8.06;100.00;100942.34;4911752;29;20396;-90
2023/12/26 06:32:43;;;;;;;4.38;0.65;;;;;;;8.03;100.00;100943.22;4911658;29;20024;-91
2023/12/26 06:35:08;;;;;;;5.57;0.80;;;;;;;7.99;100.00;100949.34;4911596;29;20038;-89
2023/12/26 06:37:33;;;;;;;5.88;0.88;;;;;;;7.99;97.95;100953.66;4929023;29;20387;-91
2023/12/26 06:39:59;;;;;;;6.03;0.80;;;;;;;7.95;98.58;100955.44;4929584;29;20031;-91
2023/12/26 06:42:24;;;;;;;6.45;0.88;;;;;;;7.89;98.99;100955.50;4910791;29;20023;-91
2023/12/26 06:44:51;;;;;;;3.38;0.70;;;;;;;7.87;96.38;100967.63;4929692;29;20503;-90
2023/12/26 06:47:17;;;;;;;2.78;0.50;;;;;;;7.81;94.99;100962.53;4913793;29;20042;-91
2023/12/26 06:49:44;;;;;;;8.40;0.75;;;;;;;7.77;94.84;100981.56;4930637;29;20075;-91
2023/12/26 06:52:11;;;;;;;5.45;0.85;;;;;;;7.72;94.93;100979.03;4912408;29;20047;-91
2023/12/26 06:54:37;;;;;;;5.43;0.70;;;;;;;7.70;94.21;100991.97;4912558;29;20375;-91
2023/12/26 06:57:07;;;;;;;6.40;0.80;;;;;;;7.64;94.02;100981.72;4927051;29;20060;-91
2023/12/26 06:59:34;;;;;;;4.38;0.60;;;;;;;7.60;93.77;100980.03;4914424;29;20026;-90
2023/12/26 07:01:59;;;;;;;5.20;0.85;;;;;;;7.56;95.27;100992.16;4911503;29;20024;-90
2023/12/26 07:04:25;;;;;;;4.18;0.60;;;;;;;7.53;94.55;100994.78;4909410;29;20139;-91
2023/12/26 07:06:52;;;;;;;3.10;0.50;;;;;;;7.51;93.76;101000.84;4928500;29;20036;-91
2023/12/26 07:09:17;;;;;;;4.15;0.60;;;;;;;7.48;93.68;101001.72;4912587;29;20086;-91
2023/12/26 07:11:42;;;;;;;3.28;0.65;;;;;;;7.46;93.91;101002.63;4928902;29;20428;-91
2023/12/26 07:14:08;;;;;;;2.78;0.50;;;;;;;7.43;94.80;101014.72;4910367;29;20444;-90
2023/12/26 07:16:35;;;;;;;5.55;0.63;;;;;;;7.40;95.42;101021.66;4911513;29;20575;-92
2023/12/26 07:19:01;;;;;;;4.93;0.60;;;;;;;7.38;95.36;101039.78;4913444;29;20032;-90
2023/12/26 07:21:27;;;;;;;6.13;0.70;;;;;;;7.37;95.18;101051.00;4912698;29;20632;-91
2023/12/26 07:23:52;;;;;;;4.90;0.60;;;;;;;7.35;95.52;101046.72;4912968;29;20106;-90
2023/12/26 07:26:18;;;;;;;4.22;0.50;;;;;;;7.34;96.30;101056.22;4911187;29;20144;-91
2023/12/26 07:28:43;;;;;;;3.95;0.60;;;;;;;7.32;96.40;101063.16;4910862;29;20024;-91
2023/12/26 07:31:08;;;;;;;4.45;1.10;;;;;;;7.32;96.99;101054.50;4911637;29;20024;-90
2023/12/26 07:33:34;;;;;;;3.97;0.55;;;;;;;7.31;97.30;101051.06;4913239;29;20236;-90
2023/12/26 07:36:01;;;;;;;3.13;0.57;;;;;;;7.33;98.42;101064.88;4913061;29;20476;-91
2023/12/26 07:38:26;;;;;;;3.65;0.75;;;;;;;7.33;98.62;101075.22;4914590;29;20091;-91
2023/12/26 07:40:52;;;;;;;4.40;0.73;;;;;;;7.31;98.84;101074.38;4914285;29;20031;-92
2023/12/26 07:43:17;;;;;;;6.28;0.98;;;;;;;7.33;99.04;101076.94;4917259;29;20078;-91
2023/12/26 07:45:42;;;;;;;5.72;0.65;;;;;;;7.32;99.54;101070.91;4915698;29;20035;-91
2023/12/26 07:48:08;;;;;;;4.55;0.70;;;;;;;7.35;99.64;101070.84;4916372;29;20641;-90
2023/12/26 07:50:34;;;;;;;5.47;0.60;;;;;;;7.35;99.58;101077.78;4914744;29;20043;-91
2023/12/26 07:52:59;;;;;;;2.65;0.63;;;;;;;7.38;99.56;101082.94;4917171;29;20035;-91
2023/12/26 07:55:24;;;;;;;4.72;0.88;;;;;;;7.39;99.58;101080.31;4914940;29;20575;-90
2023/12/26 07:57:51;;;;;;;5.95;0.80;;;;;;;7.39;99.39;101080.31;4914390;29;20031;-91
2023/12/26 08:00:16;;;;;;;4.85;0.70;;;;;;;7.38;99.37;101088.97;4913717;29;20028;-91
2023/12/26 08:02:42;;;;;;;5.00;0.80;;;;;;;7.35;99.40;101094.16;4915219;29;20547;-90
2023/12/26 08:05:08;;;;;;;2.67;0.70;;;;;;;7.36;99.30;101097.63;4934039;29;20028;-90
2023/12/26 08:07:33;;;;;;;5.13;0.80;;;;;;;7.37;99.75;101107.94;4914295;29;20054;-90
2023/12/26 08:09:58;;;;;;;8.48;1.00;;;;;;;7.39;99.76;101106.22;4914268;29;20106;-91
2023/12/26 08:12:24;;;;;;;3.95;0.95;;;;;;;7.42;100.00;101121.72;4929319;29;20027;-90
2023/12/26 08:14:49;;;;;;;4.45;0.60;;;;;;;7.42;99.85;101124.31;4914231;29;20019;-91
2023/12/26 08:17:15;;;;;;;5.72;0.93;;;;;;;7.43;99.29;101127.75;4912754;29;20399;-91
2023/12/26 08:19:40;;;;;;;5.13;0.82;;;;;;;7.44;98.87;101125.16;4912600;29;20040;-91
2023/12/26 08:22:06;;;;;;;1.77;0.50;;;;;;;7.46;99.30;101134.66;4913439;29;20048;-91
2023/12/26 08:24:31;;;;;;;5.80;0.90;;;;;;;7.46;99.20;101132.06;4930166;29;20408;-92
2023/12/26 08:26:58;;;;;;;6.18;0.82;;;;;;;7.43;99.29;101135.50;4911979;29;20032;-90
2023/12/26 08:29:23;;;;;;;5.63;0.90;;;;;;;7.41;98.97;101145.88;4913301;29;20023;-90
2023/12/26 08:31:49;;;;;;;7.03;1.02;;;;;;;7.40;98.88;101146.75;4931724;29;20047;-91
2023/12/26 08:34:15;;;;;;;6.63;1.10;;;;;;;7.38;98.77;101158.84;4914073;29;20039;-90
2023/12/26 08:36:40;;;;;;;4.50;0.80;;;;;;;7.39;98.81;101157.97;4912510;29;20031;-89
2023/12/26 08:39:05;;;;;;;5.22;0.70;;;;;;;7.39;98.82;101157.97;4930083;29;20035;-91
2023/12/26 08:41:31;;;;;;;4.93;0.93;;;;;;;7.41;98.89;101176.09;4914275;29;20495;-91
2023/12/26 08:43:56;;;;;;;5.57;0.98;;;;;;;7.41;98.85;101170.94;4914372;29;20035;-90
2023/12/26 08:46:21;;;;;;;7.25;1.10;;;;;;;7.42;98.41;101177.81;4930114;29;20039;-89
2023/12/26 08:48:47;;;;;;;4.85;1.00;;;;;;;7.43;99.00;101176.91;4929460;29;20051;-90
2023/12/26 08:51:13;;;;;;;4.95;0.88;;;;;;;7.43;98.70;101176.91;4915034;29;20364;-91
2023/12/26 08:53:38;;;;;;;5.03;0.90;;;;;;;7.43;98.81;101185.56;4930379;29;20083;-91
2023/12/26 08:56:05;;;;;;;4.65;0.70;;;;;;;7.46;99.55;101189.00;4931728;29;20487;-92
2023/12/26 08:58:32;;;;;;;8.23;0.98;;;;;;;7.50;98.87;101206.25;4929624;29;20082;-90
2023/12/26 09:00:59;;;;;;;6.60;0.95;;;;;;;7.51;99.05;101205.38;4912433;29;20471;-90
2023/12/26 09:03:24;;;;;;;5.93;1.13;;;;;;;7.53;98.81;101219.13;4915270;29;20027;-91
2023/12/26 09:05:50;;;;;;;5.53;1.13;;;;;;;7.55;98.77;101209.63;4931871;29;20035;-90
2023/12/26 09:08:15;;;;;;;9.55;0.90;;;;;;;7.57;99.33;101203.59;4931343;29;20058;-91
2023/12/26 09:10:41;;;;;;;6.88;1.17;;;;;;;7.59;99.05;101219.09;4932160;29;20051;-89
2023/12/26 09:13:06;;;;;;;4.18;0.93;;;;;;;7.61;98.62;101214.78;4912512;29;20322;-92
2023/12/26 09:15:32;;;;;;;6.45;1.35;;;;;;;7.61;98.66;101222.56;4914734;29;20577;-89
2023/12/26 09:17:57;;;;;;;5.38;0.90;;;;;;;7.63;98.59;101238.94;4911703;29;20055;-91
2023/12/26 09:20:22;;;;;;;9.18;1.00;;;;;;;7.66;99.04;101232.88;4914761;29;20048;-89
2023/12/26 09:22:48;;;;;;;8.25;1.27;;;;;;;7.67;97.61;101234.59;4931320;29;20208;-91
2023/12/26 09:25:14;;;;;;;7.95;1.35;;;;;;;7.67;97.78;101238.06;4915844;29;20023;-89
2023/12/26 09:27:41;;;;;;;5.18;1.10;;;;;;;7.65;97.90;101260.50;4914262;29;20024;-89
2023/12/26 09:30:09;;;;;;;9.13;1.35;;;;;;;7.63;97.74;101258.78;4913759;29;20691;-91
2023/12/26 09:32:34;;;;;;;6.80;1.10;;;;;;;7.62;98.01;101252.75;4929800;29;20027;-91
2023/12/26 09:35:01;;;;;;;4.63;0.80;;;;;;;7.60;98.37;101255.34;4912464;29;20024;-89
2023/12/26 09:37:26;;;;;;;9.30;1.17;;;;;;;7.61;97.56;101261.38;4914556;29;20020;-89
2023/12/26 09:40:05;;;;;;;7.30;1.10;;;;;;;7.60;97.80;101264.84;4923540;29;20391;-90
2023/12/26 09:42:31;;;;;;;4.60;1.00;;;;;;;7.60;97.67;101275.22;4912589;29;20033;-90
2023/12/26 09:44:59;;;;;;;6.07;1.00;;;;;;;7.56;96.87;101287.31;4898842;29;20034;-91
2023/12/26 09:47:25;;;;;;;7.22;0.95;;;;;;;7.53;96.69;101291.63;4925696;29;20119;-91
2023/12/26 09:49:51;;;;;;;7.40;1.25;;;;;;;7.50;96.70;101295.09;4910916;29;20174;-92
2023/12/26 09:52:17;;;;;;;7.82;0.88;;;;;;;7.49;97.46;101300.31;4911014;29;20536;-92
2023/12/26 09:54:44;;;;;;;9.55;1.40;;;;;;;7.47;97.43;101308.06;4909241;29;20043;-91
2023/12/26 09:57:09;;;;;;;6.82;0.85;;;;;;;7.46;97.14;101315.84;4909135;29;20027;-89
2023/12/26 09:59:37;;;;;;;5.38;1.00;;;;;;;7.46;96.73;101314.09;4922658;29;20094;-92
2023/12/26 10:02:04;;;;;;;3.70;0.75;;;;;;;7.43;97.24;101320.19;4902674;29;20109;-91
2023/12/26 10:04:30;;;;;;;5.43;0.95;;;;;;;7.42;96.85;101333.97;4904617;29;20123;-93
2023/12/26 10:06:56;;;;;;;6.20;0.90;;;;;;;7.46;96.69;101339.16;4916373;29;20063;-92
2023/12/26 10:09:22;;;;;;;4.95;0.85;;;;;;;7.47;96.81;101352.06;4927094;29;20557;-93
2023/12/26 10:11:47;;;;;;;6.57;1.00;;;;;;;7.52;97.15;101362.41;4929759;28;20063;-92
2023/12/26 10:14:36;;;;;;;6.22;1.08;;;;;;;7.57;97.42;101363.25;4937851;28;20023;-94
2023/12/26 10:17:03;;;;;;;6.80;0.93;;;;;;;7.60;97.06;101363.25;4923923;29;20027;-92
2023/12/26 10:19:28;;;;;;;8.55;1.10;;;;;;;7.64;96.51;101356.31;4927197;29;20054;-92
2023/12/26 10:21:54;;;;;;;7.15;1.00;;;;;;;7.65;96.40;101363.22;4911978;29;20064;-91
2023/12/26 10:24:20;;;;;;;6.97;1.00;;;;;;;7.69;96.57;101360.59;4911075;29;20039;-89
2023/12/26 10:26:46;;;;;;;5.90;0.88;;;;;;;7.72;96.14;101349.38;4928404;29;20047;-90
2023/12/26 10:29:15;;;;;;;6.30;1.83;;;;;;;7.75;96.00;101357.97;4932438;29;20039;-92
2023/12/26 10:31:42;;;;;;;6.18;1.10;;;;;;;7.79;96.43;101353.63;4930599;29;20024;-91
2023/12/26 10:34:20;;;;;;;4.55;1.17;;;;;;;7.84;96.70;101351.03;4912149;29;20034;-89
2023/12/26 10:36:48;;;;;;;8.48;1.15;;;;;;;7.87;95.74;101356.19;4909527;29;20028;-89
2023/12/26 10:39:13;;;;;;;9.95;1.20;;;;;;;7.88;95.57;101357.91;4907859;29;20083;-91
2023/12/26 10:41:48;;;;;;;7.45;1.40;;;;;;;7.94;95.70;101357.88;4902001;29;20039;-94
2023/12/26 10:44:16;;;;;;;10.88;1.30;;;;;;;7.95;95.17;101364.78;4917913;29;20028;-93
2023/12/26 10:46:42;;;;;;;8.10;1.20;;;;;;;7.98;95.61;101363.88;4920746;29;20027;-89
2023/12/26 10:49:22;;;;;;;7.53;1.10;;;;;;;7.99;95.29;101363.91;4920195;29;20440;-93
2023/12/26 10:51:51;;;;;;;9.25;1.40;;;;;;;8.03;94.92;101359.53;4899833;29;20043;-92
2023/12/26 10:54:24;;;;;;;6.78;1.13;;;;;;;8.05;95.33;101375.94;4922030;29;20032;-90
2023/12/26 10:56:50;;;;;;;6.95;1.00;;;;;;;8.08;94.92;101372.47;4919959;29;20023;-92
2023/12/26 13:51:47;;;;;;;5.57;0.88;;;;;;;8.35;88.20;101551.16;4898414;29;20445;-93
2023/12/26 13:55:05;;;;;;;5.60;1.00;;;;;;;8.35;88.60;101556.34;4907644;29;20025;-93
2023/12/26 14:07:14;;;;;;;3.90;1.02;;;;;;;8.31;88.75;101570.19;4894402;29;20100;-92
2023/12/26 14:36:25;;;;;;;8.32;1.20;;;;;;;7.96;93.25;101628.19;5111191;23;20062;-92
2023/12/26 14:48:50;;;;;;;6.47;1.38;;;;;;;7.92;90.88;101644.59;5056040;23;20120;-93
2023/12/26 14:52:39;;;;;;;5.82;1.20;;;;;;;7.89;89.32;101653.25;4904057;29;20036;-93
2023/12/26 15:22:11;;;;;;;4.65;0.82;;;;;;;7.77;83.58;101680.88;4910720;29;20502;-93
2023/12/26 15:24:36;;;;;;;4.70;0.93;;;;;;;7.74;82.36;101667.06;4912809;29;20036;-93
2023/12/26 15:27:11;;;;;;;6.25;0.85;;;;;;;7.74;83.36;101676.59;4916239;29;20114;-93
2023/12/26 15:29:45;;;;;;;5.30;1.00;;;;;;;7.77;83.99;101680.88;4909996;29;20028;-92
2023/12/26 15:32:10;;;;;;;3.95;0.68;;;;;;;7.74;83.62;101679.19;4901286;29;20127;-91